createdAt,value
2018-10-03T00:00:59.287Z,9.80
2018-10-03T00:05:43.631Z,9.70
2018-10-03T00:10:27.325Z,9.70
2018-10-03T00:15:11.061Z,9.70
2018-10-03T00:19:54.939Z,9.70
2018-10-03T00:24:39.369Z,9.70
2018-10-03T00:29:23.173Z,9.60
2018-10-03T00:34:07.345Z,9.60
2018-10-03T00:38:51.205Z,9.50
2018-10-03T00:43:35.116Z,9.50
2018-10-03T00:48:18.909Z,9.50
2018-10-03T00:53:02.695Z,9.50
2018-10-03T00:57:46.443Z,9.50
2018-10-03T01:02:30.567Z,9.50
2018-10-03T01:07:14.421Z,9.50
2018-10-03T01:11:58.139Z,9.60
2018-10-03T01:16:43.027Z,9.60
2018-10-03T01:21:27.009Z,9.60
2018-10-03T01:26:11.029Z,9.70
2018-10-03T01:30:54.769Z,9.60
2018-10-03T01:35:39.072Z,9.60
2018-10-03T01:40:23.007Z,9.50
2018-10-03T01:45:06.857Z,9.50
2018-10-03T01:49:50.635Z,9.50
2018-10-03T01:54:34.887Z,9.40
2018-10-03T01:59:18.618Z,9.30
2018-10-03T02:04:02.754Z,9.40
2018-10-03T02:08:46.757Z,9.50
2018-10-03T02:13:30.733Z,9.60
2018-10-03T02:18:14.475Z,9.50
2018-10-03T02:22:58.225Z,9.50
2018-10-03T02:27:41.997Z,9.50
2018-10-03T02:32:25.867Z,9.40
2018-10-03T02:37:09.821Z,9.50
2018-10-03T02:41:53.619Z,9.40
2018-10-03T02:46:37.440Z,9.40
2018-10-03T02:51:21.490Z,9.40
2018-10-03T02:56:05.209Z,9.40
2018-10-03T03:00:48.953Z,9.30
2018-10-03T03:05:32.628Z,9.30
2018-10-03T03:10:16.376Z,9.20
2018-10-03T03:15:00.260Z,9.10
2018-10-03T03:19:44.560Z,9.00
2018-10-03T03:24:28.363Z,8.90
2018-10-03T03:29:13.002Z,8.80
2018-10-03T03:33:56.889Z,8.80
2018-10-03T03:38:40.581Z,8.70
2018-10-03T03:43:24.329Z,8.80
2018-10-03T03:48:08.173Z,8.70
2018-10-03T03:52:52.005Z,8.60
2018-10-03T03:57:35.702Z,8.60
2018-10-03T04:02:19.748Z,8.60
2018-10-03T04:07:03.450Z,8.50
2018-10-03T04:11:47.404Z,8.40
2018-10-03T04:16:32.150Z,8.40
2018-10-03T04:21:16.067Z,8.30
2018-10-03T04:25:59.773Z,8.40
2018-10-03T04:30:43.493Z,8.70
2018-10-03T04:35:27.390Z,8.90
2018-10-03T04:40:11.120Z,9.00
2018-10-03T04:44:54.923Z,9.10
2018-10-03T04:49:39.439Z,9.20
2018-10-03T04:54:23.316Z,9.30
2018-10-03T04:59:07.105Z,9.30
2018-10-03T05:03:50.828Z,9.40
2018-10-03T05:08:34.610Z,9.40
2018-10-03T05:13:18.336Z,9.50
2018-10-03T05:18:02.404Z,9.50
2018-10-03T05:22:46.192Z,9.50
2018-10-03T05:27:30.164Z,9.50
2018-10-03T05:32:13.980Z,9.60
2018-10-03T05:36:57.824Z,9.70
2018-10-03T05:41:42.156Z,9.70
2018-10-03T05:46:25.976Z,9.80
2018-10-03T05:51:09.695Z,9.80
2018-10-03T05:55:53.644Z,10.00
2018-10-03T06:00:37.705Z,9.90
2018-10-03T06:05:21.702Z,10.00
2018-10-03T06:10:05.828Z,10.00
2018-10-03T06:14:49.670Z,10.00
2018-10-03T06:19:33.450Z,10.10
2018-10-03T06:24:18.554Z,10.10
2018-10-03T06:29:05.350Z,10.20
2018-10-03T06:33:49.421Z,10.20
2018-10-03T06:38:33.197Z,10.20
2018-10-03T06:43:16.992Z,10.20
2018-10-03T06:48:00.718Z,10.30
2018-10-03T06:52:44.534Z,10.50
2018-10-03T06:57:28.989Z,10.50
2018-10-03T07:02:13.207Z,10.60
2018-10-03T07:06:58.150Z,10.70
2018-10-03T07:11:42.532Z,10.60
2018-10-03T07:16:26.510Z,10.30
2018-10-03T07:21:10.457Z,10.20
2018-10-03T07:25:54.541Z,10.20
2018-10-03T07:30:38.642Z,9.80
2018-10-03T07:35:22.530Z,9.60
2018-10-03T07:40:07.315Z,9.40
2018-10-03T07:44:51.334Z,9.60
2018-10-03T07:49:35.286Z,9.90
2018-10-03T07:54:19.251Z,10.30
2018-10-03T07:59:03.481Z,10.50
2018-10-03T08:03:48.318Z,10.80
2018-10-03T08:08:32.350Z,11.30
2018-10-03T08:13:16.216Z,11.40
2018-10-03T08:17:59.996Z,11.50
2018-10-03T08:22:45.979Z,11.60
2018-10-03T08:27:29.821Z,11.60
2018-10-03T08:32:13.751Z,11.40
2018-10-03T08:41:53.018Z,11.80
2018-10-03T08:46:36.849Z,12.20
2018-10-03T08:51:20.710Z,12.40
2018-10-03T08:56:06.294Z,12.80
2018-10-03T09:00:56.442Z,13.30
2018-10-03T09:05:40.279Z,13.30
2018-10-03T09:10:24.227Z,12.90
2018-10-03T09:15:08.141Z,12.80
2018-10-03T09:19:53.573Z,12.80
2018-10-03T09:24:38.705Z,12.40
2018-10-03T09:29:22.821Z,12.70
2018-10-03T09:34:09.208Z,12.60
2018-10-03T09:38:53.237Z,12.90
2018-10-03T09:43:37.383Z,13.30
2018-10-03T09:48:22.482Z,13.50
2018-10-03T09:53:06.716Z,13.90
2018-10-03T09:57:50.891Z,13.30
2018-10-03T10:02:34.781Z,13.20
2018-10-03T10:07:18.937Z,13.30
2018-10-03T10:12:02.902Z,13.50
2018-10-03T10:16:46.756Z,14.20
2018-10-03T10:21:30.810Z,14.10
2018-10-03T10:26:15.051Z,13.70
2018-10-03T10:31:00.259Z,13.60
2018-10-03T10:35:44.515Z,14.00
2018-10-03T10:40:28.540Z,14.20
2018-10-03T10:45:12.123Z,13.80
2018-10-03T10:49:56.033Z,13.00
2018-10-03T10:54:40.039Z,11.90
2018-10-03T10:59:23.857Z,11.60
2018-10-03T11:04:08.445Z,12.70
2018-10-03T11:08:52.427Z,13.50
2018-10-03T11:13:36.309Z,14.10
2018-10-03T11:18:21.038Z,13.90
2018-10-03T11:23:05.000Z,12.70
2018-10-03T11:27:51.014Z,11.60
2018-10-03T11:32:35.083Z,10.70
2018-10-03T11:37:20.092Z,11.00
2018-10-03T11:42:05.057Z,11.00
2018-10-03T11:46:51.967Z,10.80
2018-10-03T11:51:39.452Z,10.80
2018-10-03T11:56:27.822Z,11.20
2018-10-03T12:01:11.907Z,11.80
2018-10-03T12:05:56.111Z,12.30
2018-10-03T12:10:41.779Z,11.80
2018-10-03T12:15:26.278Z,11.50
2018-10-03T12:20:10.367Z,11.10
2018-10-03T12:24:55.954Z,11.10
2018-10-03T12:29:40.706Z,11.30
2018-10-03T12:34:25.073Z,10.80
2018-10-03T12:39:10.163Z,10.60
2018-10-03T12:43:55.325Z,10.70
2018-10-03T12:48:39.292Z,10.80
2018-10-03T12:53:23.233Z,11.00
2018-10-03T12:58:07.217Z,11.30
2018-10-03T13:02:51.617Z,11.20
2018-10-03T13:07:36.294Z,11.90
2018-10-03T13:12:20.248Z,12.50
2018-10-03T13:17:07.040Z,12.60
2018-10-03T13:21:50.963Z,12.60
2018-10-03T13:26:34.987Z,12.80
2018-10-03T13:31:18.926Z,13.20
2018-10-03T13:36:02.719Z,13.30
2018-10-03T13:40:47.658Z,13.40
2018-10-03T13:45:32.413Z,13.30
2018-10-03T13:50:16.551Z,13.20
2018-10-03T13:55:01.339Z,13.30
2018-10-03T13:59:47.149Z,13.60
2018-10-03T14:04:30.997Z,13.60
2018-10-03T14:09:15.875Z,13.20
2018-10-03T14:13:59.720Z,13.00
2018-10-03T14:18:43.494Z,12.70
2018-10-03T14:23:27.204Z,12.80
2018-10-03T14:28:11.188Z,12.80
2018-10-03T14:32:55.125Z,12.90
2018-10-03T14:37:39.125Z,13.10
2018-10-03T14:42:23.608Z,13.50
2018-10-03T14:47:08.728Z,13.50
2018-10-03T14:51:53.048Z,13.30
2018-10-03T14:56:37.057Z,13.10
2018-10-03T15:01:20.993Z,12.90
2018-10-03T15:06:05.481Z,12.40
2018-10-03T15:10:51.618Z,12.00
2018-10-03T15:15:35.429Z,12.10
2018-10-03T15:20:20.547Z,12.00
2018-10-03T15:25:04.664Z,12.00
2018-10-03T15:29:48.741Z,12.00
2018-10-03T15:34:32.597Z,11.80
2018-10-03T15:39:16.332Z,11.70
2018-10-03T15:44:00.120Z,11.60
2018-10-03T15:48:44.152Z,11.60
2018-10-03T15:53:28.075Z,11.50
2018-10-03T15:58:11.832Z,11.30
2018-10-03T16:02:56.208Z,11.30
2018-10-03T16:07:40.068Z,11.30
2018-10-03T16:12:24.115Z,11.00
2018-10-03T16:17:07.886Z,10.80
2018-10-03T16:21:51.824Z,10.50
2018-10-03T16:26:35.851Z,10.20
2018-10-03T16:31:19.676Z,10.00
2018-10-03T16:36:03.481Z,9.70
2018-10-03T16:40:47.400Z,9.60
2018-10-03T16:45:31.512Z,9.50
2018-10-03T16:50:15.490Z,9.20
2018-10-03T16:54:59.450Z,9.10
2018-10-03T16:59:44.660Z,9.10
2018-10-03T17:04:29.179Z,9.20
2018-10-03T17:09:13.279Z,9.40
2018-10-03T17:14:35.936Z,9.50
2018-10-03T17:19:22.471Z,9.50
2018-10-03T17:24:07.937Z,9.40
2018-10-03T17:28:51.918Z,9.50
2018-10-03T17:33:36.792Z,9.40
2018-10-03T17:38:20.917Z,9.30
2018-10-03T17:43:05.385Z,9.30
2018-10-03T17:47:50.887Z,9.30
2018-10-03T17:52:35.816Z,9.50
2018-10-03T17:57:21.647Z,9.50
2018-10-03T18:02:10.905Z,9.60
2018-10-03T18:06:55.009Z,9.60
2018-10-03T18:11:43.997Z,9.70
2018-10-03T18:16:33.367Z,9.70
2018-10-03T18:21:24.209Z,9.80
2018-10-03T18:26:09.049Z,9.90
2018-10-03T18:30:56.976Z,10.00
2018-10-03T18:35:42.141Z,10.00
2018-10-03T18:40:26.914Z,10.10
2018-10-03T18:45:12.449Z,10.10
2018-10-03T18:50:05.143Z,10.10
2018-10-03T18:54:51.257Z,10.10
2018-10-03T18:59:36.227Z,10.10
2018-10-03T19:04:20.506Z,10.00
2018-10-03T19:09:06.628Z,9.90
2018-10-03T19:13:50.786Z,9.70
2018-10-03T19:18:35.154Z,9.60
2018-10-03T19:23:19.093Z,9.50
2018-10-03T19:28:03.119Z,9.50
2018-10-03T19:32:47.098Z,9.50
2018-10-03T19:37:37.607Z,9.60
2018-10-03T19:42:21.559Z,9.60
2018-10-03T19:47:05.869Z,9.70
2018-10-03T19:51:49.837Z,9.80
2018-10-03T19:56:33.975Z,9.90
2018-10-03T20:01:17.838Z,9.70
2018-10-03T20:06:01.716Z,9.70
2018-10-03T20:10:45.509Z,9.60
2018-10-03T20:15:29.375Z,9.60
2018-10-03T20:20:13.324Z,9.70
2018-10-03T20:24:57.299Z,9.70
2018-10-03T20:29:41.034Z,9.80
2018-10-03T20:34:25.067Z,9.90
2018-10-03T20:39:09.439Z,10.00
2018-10-03T20:43:53.467Z,9.90
2018-10-03T20:48:37.234Z,9.90
2018-10-03T20:53:20.940Z,9.90
2018-10-03T20:58:05.076Z,10.00
2018-10-03T21:02:49.064Z,10.00
2018-10-03T21:07:32.794Z,10.00
2018-10-03T21:12:16.515Z,10.10
2018-10-03T21:17:00.409Z,10.20
2018-10-03T21:21:44.162Z,10.10
2018-10-03T21:26:28.738Z,10.20
2018-10-03T21:31:12.516Z,10.30
2018-10-03T21:35:56.434Z,10.20
2018-10-03T21:40:40.219Z,10.20
2018-10-03T21:45:25.002Z,10.10
2018-10-03T21:50:08.810Z,10.10
2018-10-03T21:54:52.760Z,10.00
2018-10-03T21:59:36.584Z,10.00
2018-10-03T22:04:20.500Z,10.00
2018-10-03T22:09:05.508Z,10.00
2018-10-03T22:13:49.240Z,10.00
2018-10-03T22:18:33.428Z,10.00
2018-10-03T22:23:17.350Z,9.90
2018-10-03T22:28:01.336Z,9.70
2018-10-03T22:32:45.928Z,9.50
2018-10-03T22:37:30.652Z,9.30
2018-10-03T22:42:14.546Z,9.20
2018-10-03T22:46:58.394Z,9.10
2018-10-03T22:51:42.381Z,9.00
2018-10-03T22:56:26.069Z,8.90
2018-10-03T23:01:09.834Z,9.10
2018-10-03T23:05:53.850Z,9.00
2018-10-03T23:10:37.612Z,8.90
2018-10-03T23:15:21.594Z,8.90
2018-10-03T23:20:05.800Z,8.90
2018-10-03T23:24:49.507Z,8.80
2018-10-03T23:29:33.394Z,8.70
2018-10-03T23:34:17.156Z,8.70
2018-10-03T23:39:01.945Z,8.60
2018-10-03T23:43:45.792Z,8.60
2018-10-03T23:48:29.528Z,8.70
2018-10-03T23:53:13.334Z,8.70
2018-10-03T23:57:57.082Z,8.70
